sensor_id;sensor_type;location;lat;lon;timestamp;pressure;altitude;pressure_sealevel;temperature;humidity
75039;BME280;63609;49.992;14.512;2023-09-30T00:03:32;98422.00;;;19.62;47.43
75039;BME280;63609;49.992;14.512;2023-09-30T00:06:01;98427.66;;;19.67;47.39
75039;BME280;63609;49.992;14.512;2023-09-30T00:08:29;98429.84;;;18.95;49.59
75039;BME280;63609;49.992;14.512;2023-09-30T00:10:56;98431.59;;;18.81;50.94
75039;BME280;63609;49.992;14.512;2023-09-30T00:13:23;98430.72;;;18.74;51.08
75039;BME280;63609;49.992;14.512;2023-09-30T00:15:50;98438.47;;;19.26;50.03
75039;BME280;63609;49.992;14.512;2023-09-30T00:18:22;98443.34;;;19.79;48.75
75039;BME280;63609;49.992;14.512;2023-09-30T00:20:49;98445.19;;;18.88;50.98
75039;BME280;63609;49.992;14.512;2023-09-30T00:23:16;98451.91;;;19.20;50.62
75039;BME280;63609;49.992;14.512;2023-09-30T00:25:43;98453.75;;;19.40;49.83
75039;BME280;63609;49.992;14.512;2023-09-30T00:28:11;98460.38;;;19.38;49.73
75039;BME280;63609;49.992;14.512;2023-09-30T00:30:37;98456.28;;;19.21;50.45
75039;BME280;63609;49.992;14.512;2023-09-30T00:33:05;98452.09;;;18.69;51.92
75039;BME280;63609;49.992;14.512;2023-09-30T00:35:32;98458.72;;;18.45;52.86
75039;BME280;63609;49.992;14.512;2023-09-30T00:37:59;98458.97;;;18.50;53.30
75039;BME280;63609;49.992;14.512;2023-09-30T00:40:26;98455.31;;;18.79;52.33
75039;BME280;63609;49.992;14.512;2023-09-30T00:42:54;98458.78;;;18.52;53.30
75039;BME280;63609;49.992;14.512;2023-09-30T00:45:22;98471.38;;;18.59;53.73
75039;BME280;63609;49.992;14.512;2023-09-30T00:47:51;98463.03;;;18.82;52.96
75039;BME280;63609;49.992;14.512;2023-09-30T00:50:19;98469.09;;;18.41;54.24
75039;BME280;63609;49.992;14.512;2023-09-30T00:52:48;98470.41;;;17.65;55.31
75039;BME280;63609;49.992;14.512;2023-09-30T00:55:17;98480.53;;;18.07;53.86
75039;BME280;63609;49.992;14.512;2023-09-30T00:57:44;98474.56;;;17.82;54.64
75039;BME280;63609;49.992;14.512;2023-09-30T01:00:11;98473.38;;;17.70;54.55
75039;BME280;63609;49.992;14.512;2023-09-30T01:02:40;98473.50;;;17.62;54.15
75039;BME280;63609;49.992;14.512;2023-09-30T01:05:09;98472.72;;;17.98;53.60
75039;BME280;63609;49.992;14.512;2023-09-30T01:07:36;98480.63;;;17.55;54.71
75039;BME280;63609;49.992;14.512;2023-09-30T01:10:04;98483.50;;;17.39;54.58
75039;BME280;63609;49.992;14.512;2023-09-30T01:12:31;98491.06;;;17.06;55.55
75039;BME280;63609;49.992;14.512;2023-09-30T01:14:59;98480.19;;;17.14;55.10
75039;BME280;63609;49.992;14.512;2023-09-30T01:17:33;98478.25;;;17.22;54.62
75039;BME280;63609;49.992;14.512;2023-09-30T01:20:01;98479.22;;;17.44;54.32
75039;BME280;63609;49.992;14.512;2023-09-30T01:22:31;98482.25;;;17.27;54.75
75039;BME280;63609;49.992;14.512;2023-09-30T01:24:59;98481.38;;;16.97;55.79
75039;BME280;63609;49.992;14.512;2023-09-30T01:27:26;98486.34;;;16.85;55.30
75039;BME280;63609;49.992;14.512;2023-09-30T01:29:53;98487.66;;;16.89;55.40
75039;BME280;63609;49.992;14.512;2023-09-30T01:32:21;98489.16;;;16.91;55.56
75039;BME280;63609;49.992;14.512;2023-09-30T01:34:48;98490.50;;;17.10;54.98
75039;BME280;63609;49.992;14.512;2023-09-30T01:37:15;98489.16;;;16.91;55.26
75039;BME280;63609;49.992;14.512;2023-09-30T01:39:42;98483.63;;;17.08;54.49
75039;BME280;63609;49.992;14.512;2023-09-30T01:42:11;98489.28;;;16.98;54.60
75039;BME280;63609;49.992;14.512;2023-09-30T01:44:38;98490.19;;;16.68;55.40
75039;BME280;63609;49.992;14.512;2023-09-30T01:47:05;98490.09;;;16.53;55.89
75039;BME280;63609;49.992;14.512;2023-09-30T01:49:33;98483.88;;;16.52;55.95
75039;BME280;63609;49.992;14.512;2023-09-30T01:52:00;98473.69;;;16.40;55.75
75039;BME280;63609;49.992;14.512;2023-09-30T01:54:26;98497.56;;;16.74;54.92
75039;BME280;63609;49.992;14.512;2023-09-30T01:56:55;98493.66;;;16.76;54.97
75039;BME280;63609;49.992;14.512;2023-09-30T01:59:22;98490.03;;;16.61;55.45
75039;BME280;63609;49.992;14.512;2023-09-30T02:01:49;98491.94;;;16.52;55.75
75039;BME280;63609;49.992;14.512;2023-09-30T02:04:16;98491.41;;;16.57;55.85
75039;BME280;63609;49.992;14.512;2023-09-30T02:06:46;98489.38;;;16.05;56.93
75039;BME280;63609;49.992;14.512;2023-09-30T02:09:13;98507.28;;;16.21;56.67
75039;BME280;63609;49.992;14.512;2023-09-30T02:11:40;98512.63;;;16.29;56.54
75039;BME280;63609;49.992;14.512;2023-09-30T02:14:10;98509.94;;;16.29;56.34
75039;BME280;63609;49.992;14.512;2023-09-30T02:16:40;98502.38;;;16.55;55.27
75039;BME280;63609;49.992;14.512;2023-09-30T02:19:07;98506.50;;;16.43;55.72
75039;BME280;63609;49.992;14.512;2023-09-30T02:21:37;98511.00;;;16.20;56.43
75039;BME280;63609;49.992;14.512;2023-09-30T02:24:05;98512.63;;;15.98;57.04
75039;BME280;63609;49.992;14.512;2023-09-30T02:26:34;98515.19;;;16.22;56.70
75039;BME280;63609;49.992;14.512;2023-09-30T02:29:01;98527.09;;;15.97;56.91
75039;BME280;63609;49.992;14.512;2023-09-30T02:31:29;98527.22;;;16.12;56.77
75039;BME280;63609;49.992;14.512;2023-09-30T02:33:58;98534.34;;;15.96;57.41
75039;BME280;63609;49.992;14.512;2023-09-30T02:36:25;98537.41;;;15.77;57.46
75039;BME280;63609;49.992;14.512;2023-09-30T02:38:54;98535.16;;;16.05;56.91
75039;BME280;63609;49.992;14.512;2023-09-30T02:41:21;98530.84;;;15.80;57.77
75039;BME280;63609;49.992;14.512;2023-09-30T02:43:48;98523.63;;;15.72;57.93
75039;BME280;63609;49.992;14.512;2023-09-30T02:46:15;98532.28;;;16.07;57.00
75039;BME280;63609;49.992;14.512;2023-09-30T02:48:42;98535.31;;;16.12;56.49
75039;BME280;63609;49.992;14.512;2023-09-30T02:51:11;98540.75;;;15.87;57.68
75039;BME280;63609;49.992;14.512;2023-09-30T02:53:39;98540.88;;;16.10;56.45
75039;BME280;63609;49.992;14.512;2023-09-30T02:56:06;98542.81;;;15.77;57.54
75039;BME280;63609;49.992;14.512;2023-09-30T02:58:33;98553.41;;;15.62;58.28
75039;BME280;63609;49.992;14.512;2023-09-30T03:01:01;98544.84;;;15.59;58.54
75039;BME280;63609;49.992;14.512;2023-09-30T03:03:28;98550.19;;;15.83;57.40
75039;BME280;63609;49.992;14.512;2023-09-30T03:05:58;98554.13;;;15.48;58.60
75039;BME280;63609;49.992;14.512;2023-09-30T03:08:26;98557.63;;;15.65;58.36
75039;BME280;63609;49.992;14.512;2023-09-30T03:10:53;98555.34;;;15.37;59.18
75039;BME280;63609;49.992;14.512;2023-09-30T03:13:20;98559.34;;;15.50;58.85
75039;BME280;63609;49.992;14.512;2023-09-30T03:15:49;98557.00;;;15.22;59.72
75039;BME280;63609;49.992;14.512;2023-09-30T03:18:16;98554.13;;;15.32;59.37
75039;BME280;63609;49.992;14.512;2023-09-30T03:20:44;98564.06;;;15.39;59.14
75039;BME280;63609;49.992;14.512;2023-09-30T03:23:11;98562.41;;;15.14;60.19
75039;BME280;63609;49.992;14.512;2023-09-30T03:25:40;98566.44;;;15.10;60.18
75039;BME280;63609;49.992;14.512;2023-09-30T03:28:08;98565.75;;;15.24;59.73
75039;BME280;63609;49.992;14.512;2023-09-30T03:30:35;98560.56;;;15.06;60.30
75039;BME280;63609;49.992;14.512;2023-09-30T03:33:03;98570.75;;;14.87;61.21
75039;BME280;63609;49.992;14.512;2023-09-30T03:35:31;98578.88;;;15.03;60.71
75039;BME280;63609;49.992;14.512;2023-09-30T03:37:58;98584.44;;;15.10;60.55
75039;BME280;63609;49.992;14.512;2023-09-30T03:40:26;98582.00;;;14.90;61.43
75039;BME280;63609;49.992;14.512;2023-09-30T03:42:55;98582.69;;;14.92;60.78
75039;BME280;63609;49.992;14.512;2023-09-30T03:45:22;98581.00;;;14.99;60.96
75039;BME280;63609;49.992;14.512;2023-09-30T03:47:49;98575.84;;;15.06;60.48
75039;BME280;63609;49.992;14.512;2023-09-30T03:50:17;98582.69;;;14.92;61.49
75039;BME280;63609;49.992;14.512;2023-09-30T03:52:47;98598.53;;;15.03;61.15
75039;BME280;63609;49.992;14.512;2023-09-30T03:55:16;98592.84;;;15.06;61.03
75039;BME280;63609;49.992;14.512;2023-09-30T03:57:48;98602.34;;;14.93;61.30
75039;BME280;63609;49.992;14.512;2023-09-30T04:00:18;98605.91;;;15.01;61.05
75039;BME280;63609;49.992;14.512;2023-09-30T04:02:52;98601.84;;;14.89;61.63
75039;BME280;63609;49.992;14.512;2023-09-30T04:05:28;98604.06;;;15.02;61.34
75039;BME280;63609;49.992;14.512;2023-09-30T04:08:03;98613.59;;;14.72;62.37
75039;BME280;63609;49.992;14.512;2023-09-30T04:10:32;98616.47;;;14.95;61.66
75039;BME280;63609;49.992;14.512;2023-09-30T04:12:59;98626.88;;;14.82;61.74
75039;BME280;63609;49.992;14.512;2023-09-30T04:15:27;98625.53;;;14.86;61.53
75039;BME280;63609;49.992;14.512;2023-09-30T04:17:53;98627.56;;;15.00;61.13
75039;BME280;63609;49.992;14.512;2023-09-30T04:20:21;98629.00;;;15.36;59.83
75039;BME280;63609;49.992;14.512;2023-09-30T04:22:59;98633.00;;;14.58;62.69
75039;BME280;63609;49.992;14.512;2023-09-30T04:25:31;98643.09;;;15.47;59.85
75039;BME280;63609;49.992;14.512;2023-09-30T04:27:59;98651.41;;;14.87;61.79
75039;BME280;63609;49.992;14.512;2023-09-30T04:30:27;98655.44;;;14.83;61.72
75039;BME280;63609;49.992;14.512;2023-09-30T04:32:56;98657.22;;;15.24;60.90
75039;BME280;63609;49.992;14.512;2023-09-30T04:35:23;98661.97;;;14.72;62.38
75039;BME280;63609;49.992;14.512;2023-09-30T04:37:52;98670.19;;;14.70;62.99
75039;BME280;63609;49.992;14.512;2023-09-30T04:40:19;98670.91;;;14.89;61.99
75039;BME280;63609;49.992;14.512;2023-09-30T04:42:49;98675.34;;;15.06;61.81
75039;BME280;63609;49.992;14.512;2023-09-30T04:45:16;98680.63;;;14.82;62.71
75039;BME280;63609;49.992;14.512;2023-09-30T04:47:47;98683.66;;;14.78;62.83
75039;BME280;63609;49.992;14.512;2023-09-30T04:50:16;98676.63;;;14.94;62.31
75039;BME280;63609;49.992;14.512;2023-09-30T04:52:48;98680.44;;;15.50;60.40
75039;BME280;63609;49.992;14.512;2023-09-30T04:55:17;98679.09;;;15.46;60.42
75039;BME280;63609;49.992;14.512;2023-09-30T04:57:46;98691.34;;;15.24;61.14
75039;BME280;63609;49.992;14.512;2023-09-30T05:00:16;98696.03;;;15.22;61.84
75039;BME280;63609;49.992;14.512;2023-09-30T05:02:45;98698.63;;;14.97;62.97
75039;BME280;63609;49.992;14.512;2023-09-30T05:05:14;98703.47;;;14.77;64.15
75039;BME280;63609;49.992;14.512;2023-09-30T05:07:42;98698.25;;;14.76;64.73
75039;BME280;63609;49.992;14.512;2023-09-30T05:10:11;98704.25;;;15.04;63.69
75039;BME280;63609;49.992;14.512;2023-09-30T05:12:40;98708.50;;;14.81;64.77
75039;BME280;63609;49.992;14.512;2023-09-30T05:15:14;98712.09;;;14.97;64.04
75039;BME280;63609;49.992;14.512;2023-09-30T05:17:47;98720.75;;;15.09;63.89
75039;BME280;63609;49.992;14.512;2023-09-30T05:20:15;98730.44;;;14.68;65.84
75039;BME280;63609;49.992;14.512;2023-09-30T05:22:46;98738.97;;;14.29;67.48
75039;BME280;63609;49.992;14.512;2023-09-30T05:25:16;98742.09;;;14.17;68.33
75039;BME280;63609;49.992;14.512;2023-09-30T05:27:44;98740.41;;;14.75;66.38
75039;BME280;63609;49.992;14.512;2023-09-30T05:30:12;98747.47;;;14.42;66.39
75039;BME280;63609;49.992;14.512;2023-09-30T05:32:42;98750.91;;;14.61;65.42
75039;BME280;63609;49.992;14.512;2023-09-30T05:35:12;98755.56;;;14.51;65.17
75039;BME280;63609;49.992;14.512;2023-09-30T05:37:45;98739.28;;;14.52;64.62
75039;BME280;63609;49.992;14.512;2023-09-30T05:40:20;98745.22;;;14.64;64.90
75039;BME280;63609;49.992;14.512;2023-09-30T05:42:57;98743.34;;;14.98;64.29
75039;BME280;63609;49.992;14.512;2023-09-30T05:45:37;98747.19;;;15.38;62.17
75039;BME280;63609;49.992;14.512;2023-09-30T05:48:07;98754.44;;;15.46;62.14
75039;BME280;63609;49.992;14.512;2023-09-30T05:50:35;98757.13;;;14.61;64.88
75039;BME280;63609;49.992;14.512;2023-09-30T05:53:04;98773.41;;;14.08;66.30
75039;BME280;63609;49.992;14.512;2023-09-30T05:55:33;98772.31;;;14.19;66.15
75039;BME280;63609;49.992;14.512;2023-09-30T05:58:12;98779.88;;;14.41;65.30
75039;BME280;63609;49.992;14.512;2023-09-30T06:00:41;98773.84;;;14.47;64.92
75039;BME280;63609;49.992;14.512;2023-09-30T06:03:12;98783.06;;;14.01;66.21
75039;BME280;63609;49.992;14.512;2023-09-30T06:05:41;98791.97;;;13.83;66.70
75039;BME280;63609;49.992;14.512;2023-09-30T06:08:10;98795.53;;;14.28;65.41
75039;BME280;63609;49.992;14.512;2023-09-30T06:10:42;98790.31;;;14.44;64.51
75039;BME280;63609;49.992;14.512;2023-09-30T06:13:12;98786.97;;;14.24;65.77
75039;BME280;63609;49.992;14.512;2023-09-30T06:15:40;98797.53;;;14.43;65.45
75039;BME280;63609;49.992;14.512;2023-09-30T06:18:09;98798.84;;;14.39;65.63
75039;BME280;63609;49.992;14.512;2023-09-30T06:20:38;98802.56;;;14.21;65.63
75039;BME280;63609;49.992;14.512;2023-09-30T06:23:05;98804.38;;;14.38;65.32
75039;BME280;63609;49.992;14.512;2023-09-30T06:25:34;98806.81;;;14.57;65.17
75039;BME280;63609;49.992;14.512;2023-09-30T06:28:02;98813.94;;;14.66;64.53
75039;BME280;63609;49.992;14.512;2023-09-30T06:30:30;98815.31;;;14.70;64.09
75039;BME280;63609;49.992;14.512;2023-09-30T06:33:00;98820.13;;;14.15;64.77
75039;BME280;63609;49.992;14.512;2023-09-30T06:35:29;98827.59;;;14.47;64.72
75039;BME280;63609;49.992;14.512;2023-09-30T06:38:04;98830.19;;;14.13;63.32
75039;BME280;63609;49.992;14.512;2023-09-30T06:40:33;98835.22;;;14.34;61.23
75039;BME280;63609;49.992;14.512;2023-09-30T06:43:04;98829.78;;;14.08;61.37
75039;BME280;63609;49.992;14.512;2023-09-30T06:45:32;98834.91;;;14.37;59.63
75039;BME280;63609;49.992;14.512;2023-09-30T06:48:03;98838.69;;;14.26;60.20
75039;BME280;63609;49.992;14.512;2023-09-30T06:50:30;98844.63;;;14.12;61.39
75039;BME280;63609;49.992;14.512;2023-09-30T06:52:58;98843.91;;;14.28;61.24
75039;BME280;63609;49.992;14.512;2023-09-30T06:55:26;98848.63;;;14.34;61.88
75039;BME280;63609;49.992;14.512;2023-09-30T06:57:55;98849.31;;;14.00;63.16
75039;BME280;63609;49.992;14.512;2023-09-30T07:00:23;98854.56;;;13.84;63.34
75039;BME280;63609;49.992;14.512;2023-09-30T07:02:50;98860.31;;;14.07;63.40
75039;BME280;63609;49.992;14.512;2023-09-30T07:05:17;98866.25;;;13.47;64.86
75039;BME280;63609;49.992;14.512;2023-09-30T07:07:44;98879.34;;;13.23;64.65
75039;BME280;63609;49.992;14.512;2023-09-30T07:10:12;98880.38;;;13.12;64.51
75039;BME280;63609;49.992;14.512;2023-09-30T07:12:39;98882.59;;;13.54;62.11
75039;BME280;63609;49.992;14.512;2023-09-30T07:15:07;98891.22;;;13.48;63.27
75039;BME280;63609;49.992;14.512;2023-09-30T07:17:36;98902.41;;;13.43;64.11
75039;BME280;63609;49.992;14.512;2023-09-30T07:20:04;98899.28;;;13.48;64.44
75039;BME280;63609;49.992;14.512;2023-09-30T07:22:33;98901.69;;;13.69;64.82
75039;BME280;63609;49.992;14.512;2023-09-30T07:25:16;98912.16;;;13.72;65.07
75039;BME280;63609;49.992;14.512;2023-09-30T07:27:45;98911.00;;;13.92;64.35
75039;BME280;63609;49.992;14.512;2023-09-30T07:30:13;98917.66;;;14.15;63.87
75039;BME280;63609;49.992;14.512;2023-09-30T07:32:45;98922.50;;;14.12;64.34
75039;BME280;63609;49.992;14.512;2023-09-30T07:35:14;98921.19;;;13.89;65.57
75039;BME280;63609;49.992;14.512;2023-09-30T07:37:43;98922.88;;;13.72;67.06
75039;BME280;63609;49.992;14.512;2023-09-30T07:40:11;98920.88;;;13.19;69.74
75039;BME280;63609;49.992;14.512;2023-09-30T07:42:38;98932.69;;;13.81;67.78
75039;BME280;63609;49.992;14.512;2023-09-30T07:45:06;98937.94;;;14.00;66.99
75039;BME280;63609;49.992;14.512;2023-09-30T07:47:33;98934.78;;;13.60;67.59
75039;BME280;63609;49.992;14.512;2023-09-30T07:50:02;98944.06;;;13.38;68.93
75039;BME280;63609;49.992;14.512;2023-09-30T07:52:37;98940.66;;;13.45;68.32
75039;BME280;63609;49.992;14.512;2023-09-30T07:55:07;98942.66;;;14.16;65.63
75039;BME280;63609;49.992;14.512;2023-09-30T07:57:40;98939.44;;;13.40;64.21
75039;BME280;63609;49.992;14.512;2023-09-30T08:00:10;98934.97;;;13.21;62.23
75039;BME280;63609;49.992;14.512;2023-09-30T08:02:47;98941.22;;;13.49;62.94
75039;BME280;63609;49.992;14.512;2023-09-30T08:05:15;98941.41;;;13.65;62.04
75039;BME280;63609;49.992;14.512;2023-09-30T08:07:42;98936.84;;;13.75;60.73
75039;BME280;63609;49.992;14.512;2023-09-30T08:10:10;98933.09;;;14.13;59.62
75039;BME280;63609;49.992;14.512;2023-09-30T08:12:43;98938.50;;;14.04;57.96
75039;BME280;63609;49.992;14.512;2023-09-30T08:15:16;98939.19;;;14.06;57.35
75039;BME280;63609;49.992;14.512;2023-09-30T08:17:43;98942.16;;;14.03;56.90
75039;BME280;63609;49.992;14.512;2023-09-30T08:20:10;98938.81;;;13.73;57.05
75039;BME280;63609;49.992;14.512;2023-09-30T08:22:38;98941.41;;;14.10;55.96
75039;BME280;63609;49.992;14.512;2023-09-30T08:25:05;98937.97;;;14.36;56.25
75039;BME280;63609;49.992;14.512;2023-09-30T08:27:33;98937.59;;;14.31;55.88
75039;BME280;63609;49.992;14.512;2023-09-30T08:30:01;98939.75;;;14.89;54.19
75039;BME280;63609;49.992;14.512;2023-09-30T08:32:35;98932.69;;;15.05;54.40
75039;BME280;63609;49.992;14.512;2023-09-30T08:35:03;98936.34;;;14.61;54.36
75039;BME280;63609;49.992;14.512;2023-09-30T08:37:31;98931.56;;;15.16;52.91
75039;BME280;63609;49.992;14.512;2023-09-30T08:39:58;98934.59;;;14.52;54.01
75039;BME280;63609;49.992;14.512;2023-09-30T08:42:27;98944.28;;;15.06;52.74
75039;BME280;63609;49.992;14.512;2023-09-30T08:45:03;98958.97;;;15.46;52.64
75039;BME280;63609;49.992;14.512;2023-09-30T08:47:31;98956.31;;;15.62;51.83
75039;BME280;63609;49.992;14.512;2023-09-30T08:50:03;98946.97;;;15.74;50.47
75039;BME280;63609;49.992;14.512;2023-09-30T08:52:41;98954.34;;;16.14;50.38
75039;BME280;63609;49.992;14.512;2023-09-30T08:55:09;98971.69;;;16.20;49.42
75039;BME280;63609;49.992;14.512;2023-09-30T08:57:39;98963.00;;;15.84;49.13
75039;BME280;63609;49.992;14.512;2023-09-30T09:00:10;98970.06;;;16.59;48.58
75039;BME280;63609;49.992;14.512;2023-09-30T09:02:41;98967.38;;;16.43;48.55
75039;BME280;63609;49.992;14.512;2023-09-30T09:05:10;98975.41;;;16.19;48.36
75039;BME280;63609;49.992;14.512;2023-09-30T09:07:39;98964.56;;;16.77;47.84
75039;BME280;63609;49.992;14.512;2023-09-30T09:10:09;98959.97;;;16.53;47.12
75039;BME280;63609;49.992;14.512;2023-09-30T09:12:38;98954.41;;;17.12;44.99
75039;BME280;63609;49.992;14.512;2023-09-30T09:15:20;98960.50;;;16.73;46.69
75039;BME280;63609;49.992;14.512;2023-09-30T09:17:48;98965.03;;;17.05;45.56
75039;BME280;63609;49.992;14.512;2023-09-30T09:20:24;98968.59;;;15.98;47.48
75039;BME280;63609;49.992;14.512;2023-09-30T09:22:55;98959.47;;;16.50;47.08
75039;BME280;63609;49.992;14.512;2023-09-30T09:25:23;98962.88;;;15.93;47.27
75039;BME280;63609;49.992;14.512;2023-09-30T09:27:52;98972.59;;;16.61;46.75
75039;BME280;63609;49.992;14.512;2023-09-30T09:30:22;98979.31;;;16.33;46.93
75039;BME280;63609;49.992;14.512;2023-09-30T09:35:21;98985.28;;;16.85;45.40
75039;BME280;63609;49.992;14.512;2023-09-30T09:37:57;98972.91;;;17.39;44.22
75039;BME280;63609;49.992;14.512;2023-09-30T09:40:27;98982.94;;;16.74;46.29
75039;BME280;63609;49.992;14.512;2023-09-30T09:42:56;98984.63;;;16.75;45.02
75039;BME280;63609;49.992;14.512;2023-09-30T09:45:26;98993.03;;;16.80;44.16
75039;BME280;63609;49.992;14.512;2023-09-30T09:47:55;98994.72;;;16.89;43.78
75039;BME280;63609;49.992;14.512;2023-09-30T09:50:24;98995.72;;;17.04;43.27
75039;BME280;63609;49.992;14.512;2023-09-30T09:52:53;98983.38;;;17.34;42.72
75039;BME280;63609;49.992;14.512;2023-09-30T09:55:23;98987.91;;;17.42;42.19
75039;BME280;63609;49.992;14.512;2023-09-30T09:57:51;98983.59;;;18.11;41.53
75039;BME280;63609;49.992;14.512;2023-09-30T10:00:20;98991.16;;;17.84;41.49
75039;BME280;63609;49.992;14.512;2023-09-30T10:02:48;98996.91;;;17.02;44.45
75039;BME280;63609;49.992;14.512;2023-09-30T10:05:16;99007.53;;;16.79;42.94
75039;BME280;63609;49.992;14.512;2023-09-30T10:10:17;98994.91;;;18.45;41.89
75039;BME280;63609;49.992;14.512;2023-09-30T10:12:45;98991.81;;;19.17;39.58
75039;BME280;63609;49.992;14.512;2023-09-30T10:18:08;98978.03;;;19.27;38.92
75039;BME280;63609;49.992;14.512;2023-09-30T10:20:43;98978.22;;;19.55;39.42
75039;BME280;63609;49.992;14.512;2023-09-30T10:23:28;98981.59;;;19.04;39.94
75039;BME280;63609;49.992;14.512;2023-09-30T10:28:42;98974.84;;;18.09;40.66
75039;BME280;63609;49.992;14.512;2023-09-30T10:31:16;98981.56;;;17.02;43.63
75039;BME280;63609;49.992;14.512;2023-09-30T10:36:31;98990.28;;;18.23;40.42
75039;BME280;63609;49.992;14.512;2023-09-30T10:39:00;98979.84;;;18.20;40.13
75039;BME280;63609;49.992;14.512;2023-09-30T10:46:49;98978.31;;;17.31;41.78
75039;BME280;63609;49.992;14.512;2023-09-30T10:49:29;98977.78;;;18.22;40.57
75039;BME280;63609;49.992;14.512;2023-09-30T10:51:59;98968.41;;;17.79;41.73
75039;BME280;63609;49.992;14.512;2023-09-30T10:54:32;98970.34;;;17.54;40.92
75039;BME280;63609;49.992;14.512;2023-09-30T10:57:01;98972.91;;;17.86;41.33
75039;BME280;63609;49.992;14.512;2023-09-30T10:59:31;98970.16;;;17.64;40.33
75039;BME280;63609;49.992;14.512;2023-09-30T11:01:59;98971.97;;;18.10;39.76
75039;BME280;63609;49.992;14.512;2023-09-30T11:04:26;98971.72;;;18.74;38.28
75039;BME280;63609;49.992;14.512;2023-09-30T11:06:55;98980.97;;;18.57;38.37
75039;BME280;63609;49.992;14.512;2023-09-30T11:09:22;98988.22;;;17.63;39.85
75039;BME280;63609;49.992;14.512;2023-09-30T11:11:52;98976.06;;;17.51;40.16
75039;BME280;63609;49.992;14.512;2023-09-30T11:14:26;98980.25;;;18.40;38.73
75039;BME280;63609;49.992;14.512;2023-09-30T11:17:02;98979.31;;;17.38;40.71
75039;BME280;63609;49.992;14.512;2023-09-30T11:19:47;98982.47;;;18.36;39.63
75039;BME280;63609;49.992;14.512;2023-09-30T11:22:17;98977.91;;;17.67;40.20
75039;BME280;63609;49.992;14.512;2023-09-30T11:24:45;98983.38;;;18.21;39.38
75039;BME280;63609;49.992;14.512;2023-09-30T11:27:21;98982.25;;;18.69;37.21
75039;BME280;63609;49.992;14.512;2023-09-30T11:29:49;98985.22;;;17.25;38.88
75039;BME280;63609;49.992;14.512;2023-09-30T11:32:26;98976.88;;;18.07;39.22
75039;BME280;63609;49.992;14.512;2023-09-30T11:34:54;98982.03;;;17.85;38.07
75039;BME280;63609;49.992;14.512;2023-09-30T11:37:21;98972.69;;;18.58;37.49
75039;BME280;63609;49.992;14.512;2023-09-30T11:39:48;98976.56;;;19.24;36.35
75039;BME280;63609;49.992;14.512;2023-09-30T11:42:18;98978.44;;;19.68;35.45
75039;BME280;63609;49.992;14.512;2023-09-30T11:44:47;98976.00;;;19.88;33.00
75039;BME280;63609;49.992;14.512;2023-09-30T11:47:28;98963.97;;;20.48;32.12
75039;BME280;63609;49.992;14.512;2023-09-30T11:49:57;98969.00;;;20.29;32.51
75039;BME280;63609;49.992;14.512;2023-09-30T11:52:27;98961.97;;;20.35;32.66
75039;BME280;63609;49.992;14.512;2023-09-30T11:54:54;98961.16;;;20.77;32.77
75039;BME280;63609;49.992;14.512;2023-09-30T11:57:23;98960.53;;;21.03;32.34
75039;BME280;63609;49.992;14.512;2023-09-30T11:59:50;98951.13;;;20.99;32.23
75039;BME280;63609;49.992;14.512;2023-09-30T12:02:17;98945.59;;;21.83;31.52
75039;BME280;63609;49.992;14.512;2023-09-30T12:04:46;98949.66;;;19.37;34.27
75039;BME280;63609;49.992;14.512;2023-09-30T12:07:16;98953.47;;;19.73;34.19
75039;BME280;63609;49.992;14.512;2023-09-30T12:09:43;98959.44;;;19.53;34.74
75039;BME280;63609;49.992;14.512;2023-09-30T12:12:10;98963.94;;;19.46;34.69
75039;BME280;63609;49.992;14.512;2023-09-30T12:14:41;98945.38;;;19.58;33.21
75039;BME280;63609;49.992;14.512;2023-09-30T12:17:08;98955.78;;;18.79;35.20
75039;BME280;63609;49.992;14.512;2023-09-30T12:19:40;98954.47;;;20.37;32.18
75039;BME280;63609;49.992;14.512;2023-09-30T12:22:09;98950.28;;;21.20;31.57
75039;BME280;63609;49.992;14.512;2023-09-30T12:24:37;98952.97;;;20.71;30.63
75039;BME280;63609;49.992;14.512;2023-09-30T12:27:04;98945.75;;;21.34;31.97
75039;BME280;63609;49.992;14.512;2023-09-30T12:29:31;98943.03;;;21.34;31.75
75039;BME280;63609;49.992;14.512;2023-09-30T12:31:59;98931.34;;;20.84;32.42
75039;BME280;63609;49.992;14.512;2023-09-30T12:34:28;98945.28;;;21.02;31.66
75039;BME280;63609;49.992;14.512;2023-09-30T12:36:55;98937.53;;;20.14;31.90
75039;BME280;63609;49.992;14.512;2023-09-30T12:39:25;98942.75;;;20.73;32.54
75039;BME280;63609;49.992;14.512;2023-09-30T12:41:54;98946.69;;;20.49;32.75
75039;BME280;63609;49.992;14.512;2023-09-30T12:44:21;98937.50;;;20.50;32.11
75039;BME280;63609;49.992;14.512;2023-09-30T12:46:50;98934.56;;;21.50;30.21
75039;BME280;63609;49.992;14.512;2023-09-30T12:49:17;98926.47;;;21.22;30.89
75039;BME280;63609;49.992;14.512;2023-09-30T13:03:52;98935.31;;;21.78;29.62
75039;BME280;63609;49.992;14.512;2023-09-30T13:06:23;98935.09;;;21.32;30.39
75039;BME280;63609;49.992;14.512;2023-09-30T13:08:52;98934.06;;;20.56;31.00
75039;BME280;63609;49.992;14.512;2023-09-30T13:11:23;98935.28;;;20.17;32.78
75039;BME280;63609;49.992;14.512;2023-09-30T13:13:54;98922.19;;;19.70;32.78
75039;BME280;63609;49.992;14.512;2023-09-30T13:16:31;98928.28;;;20.87;32.74
75039;BME280;63609;49.992;14.512;2023-09-30T13:19:00;98914.16;;;21.67;31.26
75039;BME280;63609;49.992;14.512;2023-09-30T13:21:30;98916.84;;;22.02;29.69
75039;BME280;63609;49.992;14.512;2023-09-30T13:23:57;98921.72;;;22.20;29.72
75039;BME280;63609;49.992;14.512;2023-09-30T13:26:25;98917.47;;;21.97;30.29
75039;BME280;63609;49.992;14.512;2023-09-30T13:28:52;98913.06;;;20.92;32.65
75039;BME280;63609;49.992;14.512;2023-09-30T13:31:21;98913.34;;;21.67;30.12
75039;BME280;63609;49.992;14.512;2023-09-30T13:34:04;98907.31;;;20.17;32.06